Time;durP1;ratioP1;P1;durP2;ratioP2;P2;SDS_P1;SDS_P2;PMS_P1;PMS_P2;Temp;Humidity;BMP_temperature;BMP_pressure;BME280_temperature;BME280_humidity;BME280_pressure;Samples;Min_cycle;Max_cycle;Signal;HPM_P1;HPM_P2
2021/06/21 00:02:26;;;;;;;7.55;4.07;;;;;;;;;;5069120;28;20056;-77
2021/06/21 00:04:53;;;;;;;7.13;4.28;;;;;;;;;;5039985;28;20049;-75
2021/06/21 00:07:20;;;;;;;9.20;4.35;;;;;;;;;;5047360;28;20045;-74
2021/06/21 00:09:46;;;;;;;13.43;3.72;;;;;;;;;;5050632;28;20040;-75
2021/06/21 00:12:14;;;;;;;6.82;3.30;;;;;;;;;;5047295;28;20052;-75
2021/06/21 00:14:40;;;;;;;13.13;3.70;;;;;;;;;;5054465;28;20048;-74
2021/06/21 00:17:07;;;;;;;7.90;3.65;;;;;;;;;;5052771;28;20052;-76
2021/06/21 00:19:33;;;;;;;9.32;3.95;;;;;;;;;;5070819;28;20029;-74
2021/06/21 00:22:00;;;;;;;6.65;3.20;;;;;;;;;;5065870;28;20057;-75
2021/06/21 00:24:26;;;;;;;7.88;3.40;;;;;;;;;;5048697;28;20586;-75
2021/06/21 00:26:53;;;;;;;8.02;2.78;;;;;;;;;;5049881;28;20052;-75
2021/06/21 00:29:20;;;;;;;8.18;3.22;;;;;;;;;;5049276;28;20044;-75
2021/06/21 00:31:47;;;;;;;5.13;3.10;;;;;;;;;;5049814;28;20033;-75
2021/06/21 00:34:13;;;;;;;6.75;2.88;;;;;;;;;;5049621;28;20033;-75
2021/06/21 00:36:39;;;;;;;9.70;2.90;;;;;;;;;;5051094;28;20045;-74
2021/06/21 00:39:07;;;;;;;7.90;3.08;;;;;;;;;;5048728;28;20045;-76
2021/06/21 00:41:34;;;;;;;10.30;3.17;;;;;;;;;;5050038;28;20044;-74
2021/06/21 00:44:00;;;;;;;4.57;2.78;;;;;;;;;;5050345;28;20037;-75
2021/06/21 00:46:26;;;;;;;8.68;3.13;;;;;;;;;;5032751;28;20055;-75
2021/06/21 00:48:52;;;;;;;6.70;3.03;;;;;;;;;;5048953;28;20037;-76
2021/06/21 00:51:19;;;;;;;8.98;3.10;;;;;;;;;;5047905;28;20044;-75
2021/06/21 00:53:46;;;;;;;7.78;3.22;;;;;;;;;;5048575;28;20061;-74
2021/06/21 00:56:12;;;;;;;8.43;3.20;;;;;;;;;;5049114;28;20044;-75
2021/06/21 00:58:38;;;;;;;5.65;2.83;;;;;;;;;;5050191;28;20037;-75
2021/06/21 01:01:04;;;;;;;4.47;3.00;;;;;;;;;;5043540;28;20146;-75
2021/06/21 01:03:31;;;;;;;6.63;3.30;;;;;;;;;;5050184;28;20075;-74
2021/06/21 01:05:57;;;;;;;9.80;3.20;;;;;;;;;;5050552;28;20041;-74
2021/06/21 01:08:23;;;;;;;5.47;3.28;;;;;;;;;;5047939;28;20037;-75
2021/06/21 01:10:51;;;;;;;6.78;3.60;;;;;;;;;;5030264;28;20052;-74
2021/06/21 01:13:40;;;;;;;7.50;3.50;;;;;;;;;;5049098;28;20041;-74
2021/06/21 01:16:16;;;;;;;9.98;4.18;;;;;;;;;;5047897;28;20043;-74
2021/06/21 01:18:49;;;;;;;11.20;3.80;;;;;;;;;;5051079;28;20098;-74
2021/06/21 01:21:15;;;;;;;;;;;;;;;;;;5054759;28;20487;-75
2021/06/21 01:24:05;;;;;;;10.48;4.30;;;;;;;;;;5070321;28;19920;-74
2021/06/21 01:26:44;;;;;;;10.63;4.03;;;;;;;;;;5055593;28;20061;-75
2021/06/21 01:29:31;;;;;;;7.20;3.50;;;;;;;;;;5052627;28;20467;-77
2021/06/21 01:31:57;;;;;;;7.43;3.55;;;;;;;;;;5070058;28;20036;-74
2021/06/21 01:34:25;;;;;;;8.23;3.50;;;;;;;;;;5061907;28;20044;-75
2021/06/21 01:36:53;;;;;;;7.13;3.15;;;;;;;;;;5052048;28;20064;-75
2021/06/21 01:39:20;;;;;;;6.97;3.50;;;;;;;;;;5055270;28;20095;-75
2021/06/21 01:41:47;;;;;;;5.60;2.80;;;;;;;;;;5061987;28;20047;-75
2021/06/21 01:44:15;;;;;;;7.55;2.92;;;;;;;;;;5051819;28;20032;-77
2021/06/21 01:46:41;;;;;;;6.32;3.10;;;;;;;;;;5067080;28;20056;-74
2021/06/21 01:49:11;;;;;;;5.20;2.75;;;;;;;;;;5065876;28;20072;-75
2021/06/21 01:51:38;;;;;;;4.10;2.45;;;;;;;;;;5068171;28;20044;-75
2021/06/21 01:54:05;;;;;;;6.63;2.55;;;;;;;;;;5056808;28;20476;-75
2021/06/21 01:56:35;;;;;;;6.45;2.85;;;;;;;;;;5073686;28;20043;-75
2021/06/21 01:59:02;;;;;;;6.55;2.83;;;;;;;;;;5064441;28;20094;-75
2021/06/21 02:01:29;;;;;;;9.57;3.35;;;;;;;;;;5073213;28;20045;-75
2021/06/21 02:03:56;;;;;;;9.38;2.90;;;;;;;;;;5071981;28;20041;-74
2021/06/21 02:06:26;;;;;;;7.55;3.13;;;;;;;;;;5056386;28;20041;-75
2021/06/21 02:08:52;;;;;;;4.45;2.75;;;;;;;;;;5073030;28;20097;-75
2021/06/21 02:11:18;;;;;;;6.28;2.80;;;;;;;;;;5070055;28;20048;-76
2021/06/21 02:13:45;;;;;;;5.05;2.88;;;;;;;;;;5067789;28;20052;-74
2021/06/21 02:16:14;;;;;;;7.43;3.15;;;;;;;;;;5054562;28;20044;-76
2021/06/21 02:18:41;;;;;;;6.80;3.20;;;;;;;;;;5035820;28;20534;-74
2021/06/21 02:21:08;;;;;;;10.32;3.35;;;;;;;;;;5072160;28;20052;-74
2021/06/21 02:23:36;;;;;;;6.32;3.10;;;;;;;;;;5053996;28;20052;-75
2021/06/21 02:26:02;;;;;;;7.80;3.25;;;;;;;;;;5073421;28;20040;-74
2021/06/21 02:28:28;;;;;;;6.03;3.45;;;;;;;;;;5073110;28;20044;-75
2021/06/21 02:30:55;;;;;;;9.90;3.30;;;;;;;;;;5063828;28;20048;-75
2021/06/21 02:33:21;;;;;;;11.80;3.20;;;;;;;;;;5055089;28;20048;-75
2021/06/21 02:35:48;;;;;;;6.65;2.85;;;;;;;;;;5072968;28;20048;-75
2021/06/21 02:38:14;;;;;;;12.82;3.72;;;;;;;;;;5074136;28;20044;-75
2021/06/21 02:40:40;;;;;;;8.68;3.10;;;;;;;;;;5071617;28;20055;-74
2021/06/21 02:43:07;;;;;;;8.13;2.75;;;;;;;;;;5073895;28;20051;-74
2021/06/21 02:45:33;;;;;;;7.47;3.20;;;;;;;;;;5061340;28;20049;-74
2021/06/21 02:48:01;;;;;;;9.93;3.03;;;;;;;;;;5058934;28;20043;-74
2021/06/21 02:50:27;;;;;;;9.93;2.83;;;;;;;;;;5070877;28;20124;-75
2021/06/21 02:53:13;;;;;;;11.57;3.17;;;;;;;;;;5037115;28;20123;-74
2021/06/21 02:55:52;;;;;;;6.72;2.88;;;;;;;;;;5070490;28;20052;-75
2021/06/21 02:58:21;;;;;;;6.78;2.70;;;;;;;;;;5036345;28;20122;-77
2021/06/21 03:00:51;;;;;;;8.32;2.97;;;;;;;;;;5070257;28;20043;-75
2021/06/21 03:03:19;;;;;;;8.80;2.70;;;;;;;;;;5055868;28;20044;-74
2021/06/21 03:05:48;;;;;;;7.70;2.83;;;;;;;;;;5071549;28;20119;-75
2021/06/21 03:08:14;;;;;;;5.65;2.58;;;;;;;;;;5072605;28;20041;-75
2021/06/21 03:10:41;;;;;;;9.07;3.60;;;;;;;;;;5038106;28;20616;-75
2021/06/21 03:13:08;;;;;;;9.98;2.70;;;;;;;;;;5053657;28;20072;-75
2021/06/21 03:15:35;;;;;;;6.45;2.95;;;;;;;;;;5071774;28;20075;-75
2021/06/21 03:18:02;;;;;;;9.95;3.28;;;;;;;;;;5054849;28;20067;-76
2021/06/21 03:20:29;;;;;;;11.40;3.70;;;;;;;;;;5071086;28;20040;-74
2021/06/21 03:22:59;;;;;;;6.38;2.75;;;;;;;;;;5072054;28;20028;-74
2021/06/21 03:25:26;;;;;;;9.00;3.88;;;;;;;;;;5070674;28;20067;-75
2021/06/21 03:27:53;;;;;;;8.35;3.40;;;;;;;;;;5071841;28;20455;-74
2021/06/21 03:30:21;;;;;;;7.45;3.13;;;;;;;;;;5054596;28;20486;-74
2021/06/21 03:32:51;;;;;;;12.85;3.60;;;;;;;;;;5052807;28;20396;-74
2021/06/21 03:35:18;;;;;;;8.18;3.78;;;;;;;;;;5041110;28;20391;-74
2021/06/21 03:37:45;;;;;;;10.35;3.80;;;;;;;;;;5070725;28;20059;-74
2021/06/21 03:40:11;;;;;;;5.97;3.30;;;;;;;;;;5073054;28;20041;-74
2021/06/21 03:42:39;;;;;;;9.52;3.25;;;;;;;;;;5052859;28;20437;-74
2021/06/21 03:45:06;;;;;;;9.95;3.28;;;;;;;;;;5070257;28;20463;-74
2021/06/21 03:47:33;;;;;;;13.15;4.03;;;;;;;;;;5069302;28;20493;-74
2021/06/21 03:49:59;;;;;;;6.65;3.05;;;;;;;;;;5071666;28;20045;-75
2021/06/21 03:52:25;;;;;;;11.43;4.07;;;;;;;;;;5070343;28;20047;-77
2021/06/21 03:55:06;;;;;;;11.27;4.03;;;;;;;;;;5036463;28;20079;-75
2021/06/21 03:57:33;;;;;;;8.25;3.28;;;;;;;;;;5070926;28;20055;-75
2021/06/21 03:59:59;;;;;;;11.82;3.95;;;;;;;;;;5054828;28;20044;-75
2021/06/21 04:02:25;;;;;;;9.70;3.58;;;;;;;;;;5065004;28;20048;-77
2021/06/21 04:04:52;;;;;;;16.05;3.35;;;;;;;;;;5070896;28;20119;-75
2021/06/21 04:07:18;;;;;;;8.27;3.92;;;;;;;;;;5053157;28;20041;-74
2021/06/21 04:09:44;;;;;;;9.05;3.75;;;;;;;;;;5070249;28;20806;-75
2021/06/21 04:12:11;;;;;;;9.32;3.53;;;;;;;;;;5051281;28;20458;-76
2021/06/21 04:14:38;;;;;;;10.27;3.67;;;;;;;;;;5067510;28;20048;-75
2021/06/21 04:17:04;;;;;;;7.38;4.07;;;;;;;;;;5033836;28;20056;-74
2021/06/21 04:19:30;;;;;;;8.18;4.00;;;;;;;;;;5068014;28;20052;-74
2021/06/21 04:21:56;;;;;;;9.32;3.78;;;;;;;;;;5068833;28;20040;-75
2021/06/21 04:24:23;;;;;;;9.35;4.10;;;;;;;;;;5036249;28;20088;-74
2021/06/21 04:26:49;;;;;;;11.80;4.28;;;;;;;;;;5057678;28;20642;-76
2021/06/21 04:29:15;;;;;;;9.00;4.10;;;;;;;;;;5072054;28;20044;-74
2021/06/21 04:31:41;;;;;;;12.88;4.38;;;;;;;;;;5069449;28;20059;-75
2021/06/21 04:34:08;;;;;;;8.95;4.40;;;;;;;;;;5072001;28;20049;-74
2021/06/21 04:36:37;;;;;;;12.82;4.47;;;;;;;;;;5037200;28;20044;-75
2021/06/21 04:39:04;;;;;;;10.38;4.75;;;;;;;;;;5054451;28;20094;-74
2021/06/21 04:41:30;;;;;;;9.65;5.47;;;;;;;;;;5070784;28;20052;-76
2021/06/21 04:43:59;;;;;;;12.32;5.70;;;;;;;;;;5069648;28;20044;-74
2021/06/21 04:46:29;;;;;;;9.35;5.05;;;;;;;;;;5054210;28;20462;-74
2021/06/21 04:48:56;;;;;;;12.25;5.22;;;;;;;;;;5052189;28;20071;-75
2021/06/21 04:51:22;;;;;;;10.32;5.60;;;;;;;;;;5053714;28;20490;-74
2021/06/21 04:53:49;;;;;;;12.52;5.50;;;;;;;;;;5052664;28;20058;-74
2021/06/21 04:56:16;;;;;;;13.07;5.53;;;;;;;;;;5071033;28;20075;-75
2021/06/21 04:58:43;;;;;;;10.75;5.97;;;;;;;;;;5067922;28;20044;-75
2021/06/21 05:01:09;;;;;;;14.20;6.10;;;;;;;;;;5053202;28;20045;-74
2021/06/21 05:03:37;;;;;;;12.63;5.60;;;;;;;;;;5070089;28;20471;-74
2021/06/21 05:06:04;;;;;;;13.35;5.90;;;;;;;;;;5069700;28;20535;-74
2021/06/21 05:08:30;;;;;;;12.88;6.75;;;;;;;;;;5070912;28;20540;-76
2021/06/21 05:10:56;;;;;;;12.90;5.47;;;;;;;;;;5071317;28;20044;-74
2021/06/21 05:13:22;;;;;;;10.00;5.40;;;;;;;;;;5064750;28;20064;-75
2021/06/21 05:15:49;;;;;;;8.68;5.13;;;;;;;;;;5066840;28;20060;-75
2021/06/21 05:18:15;;;;;;;16.63;5.80;;;;;;;;;;5068538;28;20048;-74
2021/06/21 05:20:42;;;;;;;9.82;5.25;;;;;;;;;;5035667;28;20041;-74
2021/06/21 05:23:08;;;;;;;16.33;4.82;;;;;;;;;;5065615;28;20497;-74
2021/06/21 05:25:34;;;;;;;15.95;4.72;;;;;;;;;;5036840;28;20044;-76
2021/06/21 05:28:04;;;;;;;13.10;5.72;;;;;;;;;;5067562;28;20055;-74
2021/06/21 05:30:30;;;;;;;12.90;5.45;;;;;;;;;;5074163;28;20064;-74
2021/06/21 05:32:56;;;;;;;13.65;5.30;;;;;;;;;;5038234;28;20051;-75
2021/06/21 05:35:23;;;;;;;11.18;5.55;;;;;;;;;;5074224;28;20047;-74
2021/06/21 05:37:49;;;;;;;8.10;5.13;;;;;;;;;;5071229;28;20494;-76
2021/06/21 05:40:17;;;;;;;8.20;4.70;;;;;;;;;;5074751;28;20395;-74
2021/06/21 05:42:43;;;;;;;10.80;4.93;;;;;;;;;;5066235;28;20037;-74
2021/06/21 05:45:10;;;;;;;10.05;4.72;;;;;;;;;;5073393;28;20091;-74
2021/06/21 05:47:37;;;;;;;11.18;5.55;;;;;;;;;;5074125;28;20075;-76
2021/06/21 05:50:03;;;;;;;13.50;5.13;;;;;;;;;;5056505;28;20040;-74
2021/06/21 05:52:29;;;;;;;8.50;5.10;;;;;;;;;;5073921;28;20044;-74
2021/06/21 05:54:59;;;;;;;13.38;5.40;;;;;;;;;;5072527;28;20036;-74
2021/06/21 05:57:31;;;;;;;13.38;5.55;;;;;;;;;;5065320;28;20043;-74
2021/06/21 05:59:58;;;;;;;15.23;5.20;;;;;;;;;;5049773;28;20043;-74
2021/06/21 06:02:25;;;;;;;14.45;5.88;;;;;;;;;;5072083;28;20418;-74
2021/06/21 06:04:52;;;;;;;15.98;6.20;;;;;;;;;;5054163;28;20044;-74
2021/06/21 06:07:18;;;;;;;14.65;5.10;;;;;;;;;;5074731;28;20040;-74
2021/06/21 06:09:49;;;;;;;17.02;5.80;;;;;;;;;;5055270;28;20079;-75
2021/06/21 06:12:16;;;;;;;15.98;5.80;;;;;;;;;;5050380;28;20036;-75
2021/06/21 06:14:42;;;;;;;13.60;4.88;;;;;;;;;;5060446;28;20040;-75
2021/06/21 06:17:08;;;;;;;14.38;5.68;;;;;;;;;;5073688;28;20048;-79
2021/06/21 06:19:34;;;;;;;12.15;5.43;;;;;;;;;;5073517;28;20037;-78
2021/06/21 06:22:00;;;;;;;15.50;6.00;;;;;;;;;;5054810;28;20087;-80
2021/06/21 06:24:27;;;;;;;14.02;5.03;;;;;;;;;;5055478;28;20525;-77
2021/06/21 06:26:53;;;;;;;15.52;6.15;;;;;;;;;;5048275;28;20039;-77
2021/06/21 06:29:19;;;;;;;15.13;5.45;;;;;;;;;;5054891;28;20120;-79
2021/06/21 06:31:47;;;;;;;10.60;4.63;;;;;;;;;;5067767;28;20074;-76
2021/06/21 06:34:14;;;;;;;12.50;5.03;;;;;;;;;;5074641;28;20123;-76
2021/06/21 06:36:40;;;;;;;15.40;4.50;;;;;;;;;;5050014;28;20040;-77
2021/06/21 06:39:07;;;;;;;14.65;4.43;;;;;;;;;;5067485;28;20488;-75
2021/06/21 06:41:34;;;;;;;14.95;5.15;;;;;;;;;;5031481;28;20407;-75
2021/06/21 06:44:01;;;;;;;14.60;4.88;;;;;;;;;;5064286;28;20029;-75
2021/06/21 06:46:27;;;;;;;10.70;4.50;;;;;;;;;;5046510;28;20075;-75
2021/06/21 06:48:53;;;;;;;13.45;4.53;;;;;;;;;;5041459;28;20036;-76
2021/06/21 06:51:20;;;;;;;14.15;4.22;;;;;;;;;;5047956;28;20067;-76
2021/06/21 06:54:20;;;;;;;11.85;3.60;;;;;;;;;;5045455;28;20427;-76
2021/06/21 06:59:18;;;;;;;15.30;4.00;;;;;;;;;;5064142;28;20040;-75
2021/06/21 07:01:45;;;;;;;9.50;4.15;;;;;;;;;;5064412;28;20032;-75
2021/06/21 07:04:11;;;;;;;10.32;4.13;;;;;;;;;;5042583;28;20041;-75
2021/06/21 07:06:37;;;;;;;13.00;4.10;;;;;;;;;;5035232;28;20426;-74
2021/06/21 07:09:04;;;;;;;9.13;3.72;;;;;;;;;;5050256;28;20111;-75
2021/06/21 07:11:35;;;;;;;11.05;3.67;;;;;;;;;;5053168;28;20129;-74
2021/06/21 07:14:01;;;;;;;9.93;3.55;;;;;;;;;;5071699;28;20040;-75
2021/06/21 07:16:28;;;;;;;10.68;3.22;;;;;;;;;;5054672;28;20399;-73
2021/06/21 07:18:54;;;;;;;12.50;4.38;;;;;;;;;;5034669;28;20029;-75
2021/06/21 07:21:20;;;;;;;9.23;3.50;;;;;;;;;;5054597;28;20054;-76
2021/06/21 07:23:46;;;;;;;10.73;3.28;;;;;;;;;;5037200;28;20090;-76
2021/06/21 07:26:12;;;;;;;13.27;3.30;;;;;;;;;;5071461;28;20043;-74
2021/06/21 07:28:38;;;;;;;11.60;3.78;;;;;;;;;;5069260;28;20116;-74
2021/06/21 07:31:04;;;;;;;11.48;3.40;;;;;;;;;;5070631;28;20040;-73
2021/06/21 07:33:31;;;;;;;9.23;3.30;;;;;;;;;;5054431;28;20036;-73
2021/06/21 07:35:57;;;;;;;13.48;3.35;;;;;;;;;;5069864;28;20041;-74
2021/06/21 07:38:23;;;;;;;14.77;3.22;;;;;;;;;;5053328;28;20044;-73
2021/06/21 07:40:50;;;;;;;6.50;2.67;;;;;;;;;;5069624;28;20047;-75
2021/06/21 07:43:16;;;;;;;10.70;3.58;;;;;;;;;;5072180;28;20048;-74
2021/06/21 07:45:43;;;;;;;8.48;3.35;;;;;;;;;;5071865;28;20044;-72
2021/06/21 07:48:10;;;;;;;9.93;2.97;;;;;;;;;;5071512;28;20093;-73
2021/06/21 07:50:36;;;;;;;8.68;3.22;;;;;;;;;;5071549;28;20118;-75
2021/06/21 07:53:03;;;;;;;9.27;3.85;;;;;;;;;;5053232;28;20476;-75
2021/06/21 07:55:29;;;;;;;14.07;3.72;;;;;;;;;;5053035;28;20069;-77
2021/06/21 07:57:56;;;;;;;10.82;3.72;;;;;;;;;;5067793;28;20040;-77
2021/06/21 08:00:24;;;;;;;9.85;3.63;;;;;;;;;;5054488;28;20037;-77
2021/06/21 08:02:54;;;;;;;10.98;4.53;;;;;;;;;;5034203;28;20041;-78
2021/06/21 08:05:20;;;;;;;14.63;4.35;;;;;;;;;;5052095;28;20106;-77
2021/06/21 08:07:47;;;;;;;12.50;4.57;;;;;;;;;;5034449;28;20044;-78
2021/06/21 08:10:14;;;;;;;10.82;3.80;;;;;;;;;;5033348;28;20645;-77
2021/06/21 08:12:41;;;;;;;10.90;4.38;;;;;;;;;;5052256;28;20063;-76
2021/06/21 08:15:09;;;;;;;12.95;4.75;;;;;;;;;;5056741;28;20052;-73
2021/06/21 08:17:35;;;;;;;12.60;4.45;;;;;;;;;;5071153;28;20094;-75
2021/06/21 08:20:01;;;;;;;14.63;3.90;;;;;;;;;;5070980;28;20387;-75
2021/06/21 08:22:27;;;;;;;14.00;4.35;;;;;;;;;;5063167;28;20106;-75
2021/06/21 08:24:54;;;;;;;15.50;4.40;;;;;;;;;;5037557;28;20044;-77
2021/06/21 08:27:20;;;;;;;9.07;4.35;;;;;;;;;;5058920;28;20064;-75
2021/06/21 08:29:46;;;;;;;11.77;4.82;;;;;;;;;;5051967;28;20045;-76
2021/06/21 08:32:12;;;;;;;13.57;4.38;;;;;;;;;;5053215;28;20045;-76
2021/06/21 08:34:39;;;;;;;13.20;4.43;;;;;;;;;;5072032;28;20392;-76
2021/06/21 08:37:06;;;;;;;14.85;4.30;;;;;;;;;;5071066;28;20059;-76
2021/06/21 08:39:32;;;;;;;18.60;5.20;;;;;;;;;;5062134;28;20044;-75
2021/06/21 08:41:59;;;;;;;17.90;5.97;;;;;;;;;;5033132;28;20479;-76
2021/06/21 08:44:27;;;;;;;15.60;4.75;;;;;;;;;;5058200;28;20459;-74
2021/06/21 08:46:54;;;;;;;11.93;4.70;;;;;;;;;;5085284;28;20044;-74
2021/06/21 08:49:20;;;;;;;13.77;4.65;;;;;;;;;;5081968;28;20041;-75
2021/06/21 08:51:49;;;;;;;18.15;5.03;;;;;;;;;;5066557;28;20472;-76
2021/06/21 08:54:16;;;;;;;18.98;4.97;;;;;;;;;;5066568;28;20045;-74
2021/06/21 08:56:42;;;;;;;17.33;4.43;;;;;;;;;;5068970;28;20452;-73
2021/06/21 08:59:08;;;;;;;12.65;4.47;;;;;;;;;;5067331;28;20157;-72
2021/06/21 09:01:39;;;;;;;10.82;3.75;;;;;;;;;;5067901;28;20422;-73
2021/06/21 09:04:09;;;;;;;12.02;3.95;;;;;;;;;;5070705;28;20046;-73
2021/06/21 09:06:37;;;;;;;11.70;4.03;;;;;;;;;;5075431;28;20427;-73
2021/06/21 09:09:04;;;;;;;14.50;3.78;;;;;;;;;;5073252;28;20033;-74
2021/06/21 09:11:46;;;;;;;12.05;3.53;;;;;;;;;;5058007;28;20438;-75
2021/06/21 09:14:24;;;;;;;13.77;3.63;;;;;;;;;;5073715;28;20046;-74
2021/06/21 09:16:50;;;;;;;11.75;3.70;;;;;;;;;;5074609;28;20121;-75
2021/06/21 09:19:19;;;;;;;10.02;2.97;;;;;;;;;;5068816;28;20041;-74
2021/06/21 09:21:46;;;;;;;10.48;2.63;;;;;;;;;;5075134;28;20515;-76
2021/06/21 09:24:15;;;;;;;13.73;3.28;;;;;;;;;;5057448;28;20494;-76
2021/06/21 09:26:41;;;;;;;7.43;3.28;;;;;;;;;;5057161;28;20044;-74
2021/06/21 09:29:08;;;;;;;11.50;2.65;;;;;;;;;;5074142;28;20521;-72
2021/06/21 09:31:50;;;;;;;7.38;2.92;;;;;;;;;;5074872;28;20041;-72
2021/06/21 09:34:18;;;;;;;8.63;3.05;;;;;;;;;;5073475;28;20110;-71
2021/06/21 09:36:44;;;;;;;10.40;3.05;;;;;;;;;;5075197;28;20052;-73
2021/06/21 09:39:18;;;;;;;7.63;2.88;;;;;;;;;;5073522;28;20056;-72
2021/06/21 09:41:44;;;;;;;10.30;3.90;;;;;;;;;;5057200;28;20037;-72
2021/06/21 09:44:30;;;;;;;10.93;3.63;;;;;;;;;;5064540;28;20053;-75
2021/06/21 09:47:15;;;;;;;9.07;2.78;;;;;;;;;;5074899;28;20041;-71
2021/06/21 09:50:14;;;;;;;8.82;3.13;;;;;;;;;;5074610;28;20044;-71
2021/06/21 09:52:42;;;;;;;12.25;3.20;;;;;;;;;;5050453;28;20063;-72
2021/06/21 09:55:11;;;;;;;11.45;3.13;;;;;;;;;;5074153;28;20044;-70
2021/06/21 09:57:37;;;;;;;13.10;3.15;;;;;;;;;;5074051;28;20075;-72
2021/06/21 10:00:05;;;;;;;12.73;3.55;;;;;;;;;;5074125;28;20040;-73
2021/06/21 10:02:32;;;;;;;9.65;3.47;;;;;;;;;;5074618;28;20039;-71
2021/06/21 10:04:58;;;;;;;10.93;4.03;;;;;;;;;;5066522;28;20483;-70
2021/06/21 10:07:32;;;;;;;11.60;3.85;;;;;;;;;;5073744;28;20216;-73
2021/06/21 10:10:04;;;;;;;9.07;3.40;;;;;;;;;;5056437;28;20040;-72
2021/06/21 10:12:30;;;;;;;10.02;2.92;;;;;;;;;;5074185;28;20044;-69
2021/06/21 10:14:56;;;;;;;9.10;3.10;;;;;;;;;;5057831;28;20045;-77
2021/06/21 10:17:23;;;;;;;8.18;2.70;;;;;;;;;;5036057;28;20119;-77
2021/06/21 10:19:49;;;;;;;8.40;3.28;;;;;;;;;;5069766;28;20041;-71
2021/06/21 10:22:19;;;;;;;8.82;3.08;;;;;;;;;;5055242;28;20076;-71
2021/06/21 10:24:46;;;;;;;13.57;2.85;;;;;;;;;;5074183;28;20040;-71
2021/06/21 10:27:13;;;;;;;12.07;3.08;;;;;;;;;;5071129;28;20119;-70
2021/06/21 10:29:41;;;;;;;9.75;2.65;;;;;;;;;;5066357;28;20040;-72
2021/06/21 10:32:08;;;;;;;10.73;3.60;;;;;;;;;;5062150;28;20045;-74
2021/06/21 10:34:34;;;;;;;7.07;2.97;;;;;;;;;;5064526;28;20075;-75
2021/06/21 10:37:01;;;;;;;13.07;3.58;;;;;;;;;;5040041;28;20127;-73
2021/06/21 10:39:33;;;;;;;9.73;3.13;;;;;;;;;;5064834;28;20047;-74
2021/06/21 10:42:06;;;;;;;13.35;2.35;;;;;;;;;;5073885;28;20465;-74
2021/06/21 10:44:39;;;;;;;9.75;3.05;;;;;;;;;;5067445;28;20033;-74
2021/06/21 10:47:24;;;;;;;11.02;3.55;;;;;;;;;;5074031;28;20089;-75
2021/06/21 10:50:05;;;;;;;11.35;3.08;;;;;;;;;;5067296;28;20052;-74
2021/06/21 10:52:32;;;;;;;11.95;2.60;;;;;;;;;;5054695;28;20091;-75
2021/06/21 10:55:16;;;;;;;9.77;3.10;;;;;;;;;;5071610;28;20117;-75
2021/06/21 10:57:42;;;;;;;7.60;2.88;;;;;;;;;;5072573;28;20060;-75
2021/06/21 11:00:12;;;;;;;11.48;3.13;;;;;;;;;;5062961;28;20064;-75
2021/06/21 11:02:39;;;;;;;11.68;4.22;;;;;;;;;;5066378;28;20380;-71
2021/06/21 11:05:06;;;;;;;10.68;3.63;;;;;;;;;;5063848;28;20037;-71
2021/06/21 11:07:32;;;;;;;10.45;3.22;;;;;;;;;;5052865;28;20049;-70
2021/06/21 11:10:01;;;;;;;9.88;2.75;;;;;;;;;;5062328;28;20041;-72
2021/06/21 11:12:30;;;;;;;12.05;3.15;;;;;;;;;;5054378;28;20041;-73
2021/06/21 11:15:09;;;;;;;12.25;2.85;;;;;;;;;;5072974;28;20070;-71
2021/06/21 11:17:51;;;;;;;8.60;2.80;;;;;;;;;;5039759;28;20470;-72
2021/06/21 11:20:29;;;;;;;15.07;3.38;;;;;;;;;;5075037;28;20041;-72
2021/06/21 11:22:59;;;;;;;12.13;2.88;;;;;;;;;;5072331;28;20074;-72
2021/06/21 11:25:26;;;;;;;12.60;2.75;;;;;;;;;;5069849;28;20121;-72
2021/06/21 11:27:53;;;;;;;7.88;2.75;;;;;;;;;;5071536;28;20045;-72
2021/06/21 11:30:23;;;;;;;8.73;2.85;;;;;;;;;;5071250;28;20037;-72
2021/06/21 11:32:54;;;;;;;13.82;3.58;;;;;;;;;;5070084;28;20436;-73
2021/06/21 11:35:40;;;;;;;9.70;3.40;;;;;;;;;;5068088;28;20055;-72
2021/06/21 11:38:24;;;;;;;11.45;3.85;;;;;;;;;;5071302;28;20128;-74
2021/06/21 11:41:09;;;;;;;11.48;3.17;;;;;;;;;;5058227;28;20033;-72
2021/06/21 11:43:47;;;;;;;7.57;2.90;;;;;;;;;;5052838;28;20068;-72
2021/06/21 11:46:32;;;;;;;8.70;3.15;;;;;;;;;;5070827;28;20040;-74
2021/06/21 11:49:05;;;;;;;10.80;3.20;;;;;;;;;;5059748;28;20056;-72
2021/06/21 11:51:31;;;;;;;8.38;3.10;;;;;;;;;;5070131;28;20051;-72
2021/06/21 11:53:59;;;;;;;9.80;3.65;;;;;;;;;;5065307;28;20041;-72
2021/06/21 11:56:26;;;;;;;9.50;3.47;;;;;;;;;;5069549;28;20398;-73
2021/06/21 11:58:53;;;;;;;12.07;3.90;;;;;;;;;;5071366;28;20041;-72
2021/06/21 12:01:29;;;;;;;10.60;3.47;;;;;;;;;;5070781;28;20044;-72
2021/06/21 12:04:00;;;;;;;10.27;3.38;;;;;;;;;;5069457;28;20039;-72
2021/06/21 12:06:27;;;;;;;9.00;3.15;;;;;;;;;;5070958;28;20052;-72
2021/06/21 12:08:53;;;;;;;13.32;4.15;;;;;;;;;;5052628;28;20086;-72
2021/06/21 12:11:24;;;;;;;13.43;3.45;;;;;;;;;;5052715;28;20131;-72
2021/06/21 12:13:54;;;;;;;13.38;3.75;;;;;;;;;;5065948;28;20044;-72
2021/06/21 12:16:21;;;;;;;11.57;3.72;;;;;;;;;;5051691;28;20040;-72
2021/06/21 12:18:51;;;;;;;11.65;4.05;;;;;;;;;;5071005;28;20094;-72
2021/06/21 12:21:32;;;;;;;15.95;4.53;;;;;;;;;;5069736;28;20105;-74
2021/06/21 12:24:13;;;;;;;10.98;4.05;;;;;;;;;;5049544;28;20471;-72
2021/06/21 12:26:39;;;;;;;11.30;3.75;;;;;;;;;;5069707;28;20918;-72
2021/06/21 12:29:17;;;;;;;7.35;3.50;;;;;;;;;;5070564;28;20047;-72
2021/06/21 12:31:57;;;;;;;7.95;3.85;;;;;;;;;;5053475;28;20037;-72
2021/06/21 12:34:39;;;;;;;11.25;4.00;;;;;;;;;;5070218;28;20566;-72
2021/06/21 12:37:26;;;;;;;9.98;3.45;;;;;;;;;;5042308;28;20044;-72
2021/06/21 12:39:53;;;;;;;9.23;3.72;;;;;;;;;;5069141;28;20137;-72
2021/06/21 12:42:21;;;;;;;10.88;4.28;;;;;;;;;;5068158;28;20072;-75
2021/06/21 12:44:47;;;;;;;11.63;4.10;;;;;;;;;;5072064;28;20040;-72
2021/06/21 12:47:15;;;;;;;11.00;4.10;;;;;;;;;;5039059;28;20048;-72
2021/06/21 12:49:41;;;;;;;12.95;5.38;;;;;;;;;;5075285;28;20832;-72
2021/06/21 12:52:08;;;;;;;19.35;5.10;;;;;;;;;;5052692;28;20404;-71
2021/06/21 12:54:35;;;;;;;11.80;4.90;;;;;;;;;;5063144;28;20116;-73
2021/06/21 12:57:01;;;;;;;12.35;4.03;;;;;;;;;;5070038;28;20052;-72
2021/06/21 12:59:27;;;;;;;9.93;4.10;;;;;;;;;;5055251;28;20086;-72
2021/06/21 13:01:54;;;;;;;13.35;4.47;;;;;;;;;;5089571;28;20419;-72
2021/06/21 13:04:20;;;;;;;10.98;3.90;;;;;;;;;;5046814;28;20125;-74
2021/06/21 13:06:48;;;;;;;12.35;4.65;;;;;;;;;;5052924;28;20040;-71
2021/06/21 13:09:15;;;;;;;19.15;5.07;;;;;;;;;;5069656;28;20369;-72
2021/06/21 13:12:10;;;;;;;12.20;4.70;;;;;;;;;;5054292;28;20044;-72
2021/06/21 13:14:37;;;;;;;13.32;4.45;;;;;;;;;;5038910;28;20056;-72
2021/06/21 13:17:08;;;;;;;17.30;5.45;;;;;;;;;;5067649;28;20037;-72
2021/06/21 13:19:42;;;;;;;14.20;5.18;;;;;;;;;;5078355;28;20040;-72
2021/06/21 13:22:11;;;;;;;12.75;4.88;;;;;;;;;;5076604;28;20080;-72
2021/06/21 13:24:39;;;;;;;17.77;5.38;;;;;;;;;;5069620;28;20545;-72
2021/06/21 13:27:21;;;;;;;17.42;5.95;;;;;;;;;;5057789;28;20050;-72
2021/06/21 13:29:47;;;;;;;14.88;5.25;;;;;;;;;;5071361;28;20476;-72
2021/06/21 13:32:21;;;;;;;19.10;6.57;;;;;;;;;;5065574;28;20086;-72
2021/06/21 13:34:49;;;;;;;15.48;5.30;;;;;;;;;;5072418;28;20468;-71
2021/06/21 13:37:24;;;;;;;14.50;5.40;;;;;;;;;;5071464;28;20040;-72
2021/06/21 13:39:52;;;;;;;19.35;6.13;;;;;;;;;;5070518;28;20410;-72
2021/06/21 13:42:18;;;;;;;15.60;5.50;;;;;;;;;;5074078;28;20129;-72
2021/06/21 13:44:54;;;;;;;23.35;5.95;;;;;;;;;;5050792;28;20041;-72
2021/06/21 13:47:36;;;;;;;20.33;5.53;;;;;;;;;;5077701;28;20045;-72
2021/06/21 13:50:06;;;;;;;17.98;5.57;;;;;;;;;;5052976;28;20461;-72
2021/06/21 13:52:39;;;;;;;19.20;5.40;;;;;;;;;;5075369;28;20060;-72
2021/06/21 13:55:06;;;;;;;16.85;5.10;;;;;;;;;;5074125;28;20113;-71
2021/06/21 13:57:37;;;;;;;15.07;5.32;;;;;;;;;;5066813;28;20128;-72
2021/06/21 14:00:04;;;;;;;16.92;5.88;;;;;;;;;;5074712;28;20436;-72
2021/06/21 14:02:31;;;;;;;16.58;5.38;;;;;;;;;;5071806;28;20071;-72
2021/06/21 14:04:58;;;;;;;19.35;6.32;;;;;;;;;;5074672;28;20051;-71
2021/06/21 14:07:24;;;;;;;17.08;6.07;;;;;;;;;;5089206;28;20040;-71
2021/06/21 14:09:57;;;;;;;16.05;5.80;;;;;;;;;;5075023;28;20045;-72
2021/06/21 14:12:23;;;;;;;21.02;6.13;;;;;;;;;;5086064;28;20068;-73
2021/06/21 14:14:50;;;;;;;18.83;5.50;;;;;;;;;;5055925;28;20107;-71
2021/06/21 14:17:18;;;;;;;23.45;5.63;;;;;;;;;;5067353;28;20045;-73
2021/06/21 14:19:45;;;;;;;17.55;5.80;;;;;;;;;;5038505;28;20049;-72
2021/06/21 14:22:11;;;;;;;13.77;5.35;;;;;;;;;;5075924;28;20044;-72
2021/06/21 14:24:37;;;;;;;17.75;5.35;;;;;;;;;;5073740;28;20113;-72
2021/06/21 14:27:04;;;;;;;17.35;5.50;;;;;;;;;;5075121;28;20110;-72
2021/06/21 14:29:30;;;;;;;15.02;5.20;;;;;;;;;;5058509;28;20044;-78
2021/06/21 14:31:56;;;;;;;15.75;5.00;;;;;;;;;;5072048;28;20037;-71
2021/06/21 14:34:23;;;;;;;15.73;5.05;;;;;;;;;;5058963;28;20051;-74
2021/06/21 14:36:49;;;;;;;16.00;5.22;;;;;;;;;;5048949;28;20068;-73
2021/06/21 14:39:15;;;;;;;23.33;7.53;;;;;;;;;;5045116;28;20467;-75
2021/06/21 14:41:41;;;;;;;16.77;5.20;;;;;;;;;;5043050;28;20097;-76
2021/06/21 14:44:07;;;;;;;17.98;5.18;;;;;;;;;;5046972;28;20045;-76
2021/06/21 14:46:34;;;;;;;14.73;5.40;;;;;;;;;;5063242;28;20074;-76
2021/06/21 14:49:00;;;;;;;15.73;4.90;;;;;;;;;;5062434;28;20485;-75